Aeroporto :
LOGIN :

Iscrizione | Disclaimer

   EN    FR    IT 

 










Sommario :    VFR   VFR Marginale   IFR   IFR Intensivo   IFR Molto Intensivo
Visibilità : 
Base nubi : 
>= 8 km
>= 3000ft
5 / 8 km
1000 / 3000 ft
1500m / 5 km
500 / 1000 ft
800 / 1500m
200 / 500 ft
< 800m
< 200 ft
Simboli :   Temporali  Nebbia  Neve Forte  Precipitazioni Forti  Vento > 20 kt
SIGMETs :   Varie  Temporali  Ghiacco  Turbolenza  Onda orograficha  Ceneri Vulcaniche






- Altitudine del aeroporto : 228 ft
- Codice IATA : OPO


LPPR - Porto Fr. Sa Carneiro

ULTIMO METAR :
  • 071330Z 22009KT 190V260 9999 SCT008 SCT022 17/15 Q1021

METARs OBSOLETI :
  • 071300Z 21010KT 9999 SCT010 SCT040 18/15 Q1021
  • 071230Z 22010KT 9999 SCT010 SCT040 18/15 Q1021
  • 071200Z 23012KT 200V260 9999 SCT025 SCT040 19/15 Q1021
  • 071130Z 19012KT 9999 SCT025 SCT045 19/13 Q1021

TAF TAF LPPR
Valido dal 07 a 12 ore il 08 a 12 ore UTC


071100Z 0712/0812 20013KT 9999 SCT020 BKN045
BECMG 0712/0715 23010KT SCT025 SCT040
BECMG 0718/0721 16005KT SCT005
BECMG 0721/0724 5000 BR BKN003
PROB30
TEMPO 0802/0808 0500 FG BKN001
BECMG 0809/0812 18007KT 9999 NSW SCT012 SCT040



MetMap, La meteo Aeronautica in un colpo d'occhio ! - Copyright ORBIFLY Dicembre 2007 - Disclaimer

ORBIFLY MET'MAP TEAM :

Programmazione e sviluppo : Alexandra Zaïnal
Concezione : Baudouin d'Aumeries
Aiuto per la programmazione : Marc-Olivier Méhu
Supporto tecnico e logistico : Manuel Goepfert
Aiuto per la traduzione : Arnaldo La Scala

Contatto : metmap@orbifly.com




FONTI E CREDITI :

   NOAA